Time;durP1;ratioP1;P1;durP2;ratioP2;P2;SDS_P1;SDS_P2;PMS_P1;PMS_P2;Temp;Humidity;BMP_temperature;BMP_pressure;BME280_temperature;BME280_humidity;BME280_pressure;Samples;Min_cycle;Max_cycle;Signal;HPM_P1;HPM_P2
2021/12/29 00:01:34;;;;;;;10.95;1.67;;;;;;;;;;5024929;28;20036;-75
2021/12/29 00:03:59;;;;;;;8.75;1.50;;;;;;;;;;5024031;28;20052;-75
2021/12/29 00:06:24;;;;;;;5.53;1.45;;;;;;;;;;5025669;28;20034;-75
2021/12/29 00:08:49;;;;;;;4.95;1.70;;;;;;;;;;5028684;28;20025;-75
2021/12/29 00:11:14;;;;;;;9.05;1.70;;;;;;;;;;5029512;28;20151;-76
2021/12/29 00:13:40;;;;;;;10.30;1.50;;;;;;;;;;5019257;28;20159;-74
2021/12/29 00:16:05;;;;;;;9.07;1.88;;;;;;;;;;5026513;28;20033;-75
2021/12/29 00:18:32;;;;;;;7.80;1.65;;;;;;;;;;5027739;28;20163;-74
2021/12/29 00:20:58;;;;;;;8.30;1.42;;;;;;;;;;5023063;28;20030;-76
2021/12/29 00:23:23;;;;;;;8.60;1.40;;;;;;;;;;5020616;28;20025;-75
2021/12/29 00:25:48;;;;;;;9.73;1.50;;;;;;;;;;5023243;28;20036;-75
2021/12/29 00:28:14;;;;;;;6.88;1.38;;;;;;;;;;5030235;28;20462;-76
2021/12/29 00:30:39;;;;;;;7.32;1.40;;;;;;;;;;5020161;28;20033;-75
2021/12/29 00:33:04;;;;;;;8.85;1.30;;;;;;;;;;5028133;28;20457;-75
2021/12/29 00:35:29;;;;;;;9.80;1.73;;;;;;;;;;5018433;28;20025;-74
2021/12/29 00:37:55;;;;;;;7.35;1.30;;;;;;;;;;5023283;28;20045;-77
2021/12/29 00:40:20;;;;;;;9.90;1.70;;;;;;;;;;5025886;28;20032;-75
2021/12/29 00:42:45;;;;;;;6.40;1.92;;;;;;;;;;5022788;28;20460;-75
2021/12/29 00:45:11;;;;;;;6.57;1.30;;;;;;;;;;5020362;28;20068;-74
2021/12/29 00:47:37;;;;;;;7.43;1.35;;;;;;;;;;5021606;28;20353;-73
2021/12/29 00:50:05;;;;;;;5.55;1.83;;;;;;;;;;5030020;28;20029;-75
2021/12/29 00:52:31;;;;;;;5.72;1.10;;;;;;;;;;5023602;28;20036;-74
2021/12/29 00:54:56;;;;;;;8.15;1.85;;;;;;;;;;5034487;28;20021;-75
2021/12/29 00:57:21;;;;;;;4.10;1.30;;;;;;;;;;5028387;28;20042;-75
2021/12/29 00:59:46;;;;;;;7.38;1.40;;;;;;;;;;5023529;28;20335;-75
2021/12/29 01:02:12;;;;;;;10.20;1.35;;;;;;;;;;5020571;28;20022;-77
2021/12/29 01:04:37;;;;;;;6.97;1.77;;;;;;;;;;5028279;28;20531;-74
2021/12/29 01:07:03;;;;;;;8.15;1.65;;;;;;;;;;5023880;28;20049;-74
2021/12/29 01:09:28;;;;;;;10.10;1.58;;;;;;;;;;5021907;28;20025;-76
2021/12/29 01:11:57;;;;;;;8.65;1.92;;;;;;;;;;5022173;28;20549;-73
2021/12/29 01:14:25;;;;;;;6.93;1.50;;;;;;;;;;5026817;28;20592;-74
2021/12/29 01:16:50;;;;;;;6.15;1.27;;;;;;;;;;5020812;28;20037;-76
2021/12/29 01:19:18;;;;;;;6.65;1.85;;;;;;;;;;5017997;28;20032;-73
2021/12/29 01:21:45;;;;;;;8.88;1.40;;;;;;;;;;5028052;28;20496;-74
2021/12/29 01:24:10;;;;;;;10.05;1.48;;;;;;;;;;5027419;28;20052;-74
2021/12/29 01:26:36;;;;;;;10.77;1.45;;;;;;;;;;5027477;28;20013;-75
2021/12/29 01:29:02;;;;;;;7.18;1.45;;;;;;;;;;5022931;28;20155;-75
2021/12/29 01:31:27;;;;;;;5.85;1.50;;;;;;;;;;5027239;28;20125;-76
2021/12/29 01:33:52;;;;;;;8.00;1.40;;;;;;;;;;5027975;28;20021;-75
2021/12/29 01:36:17;;;;;;;10.00;1.30;;;;;;;;;;5026243;28;20123;-76
2021/12/29 01:38:43;;;;;;;6.22;1.40;;;;;;;;;;5026202;28;20101;-74
2021/12/29 01:41:08;;;;;;;7.63;1.30;;;;;;;;;;5025783;28;20060;-75
2021/12/29 01:43:33;;;;;;;4.97;1.40;;;;;;;;;;5028032;28;20036;-74
2021/12/29 01:45:58;;;;;;;5.72;1.52;;;;;;;;;;5028479;28;20025;-74
2021/12/29 01:48:24;;;;;;;9.68;1.70;;;;;;;;;;5022880;28;20025;-75
2021/12/29 01:50:51;;;;;;;9.40;1.42;;;;;;;;;;5024456;28;20026;-75
2021/12/29 01:53:23;;;;;;;6.82;1.25;;;;;;;;;;5027010;28;20370;-74
2021/12/29 01:55:49;;;;;;;6.80;1.40;;;;;;;;;;5021068;28;20033;-75
2021/12/29 01:58:14;;;;;;;7.82;1.63;;;;;;;;;;5027350;28;20473;-75
2021/12/29 02:00:41;;;;;;;8.98;1.15;;;;;;;;;;5025790;28;20025;-73
2021/12/29 02:03:08;;;;;;;6.05;1.45;;;;;;;;;;5020802;28;20032;-74
2021/12/29 02:05:33;;;;;;;7.07;1.40;;;;;;;;;;5026169;28;20032;-74
2021/12/29 02:07:58;;;;;;;8.98;2.03;;;;;;;;;;5025725;28;20409;-74
2021/12/29 02:10:24;;;;;;;8.40;1.27;;;;;;;;;;5020111;28;20032;-74
2021/12/29 02:12:50;;;;;;;6.43;1.33;;;;;;;;;;5020941;28;20016;-74
2021/12/29 02:15:15;;;;;;;6.85;1.45;;;;;;;;;;5022892;28;20373;-75
2021/12/29 02:17:40;;;;;;;9.15;1.50;;;;;;;;;;5025118;28;20032;-75
2021/12/29 02:20:07;;;;;;;4.72;1.50;;;;;;;;;;5019761;28;20013;-74
2021/12/29 02:22:41;;;;;;;10.85;1.52;;;;;;;;;;5026782;28;20025;-74
2021/12/29 02:27:53;;;;;;;6.53;1.50;;;;;;;;;;5009187;28;20037;-74
2021/12/29 02:30:23;;;;;;;6.03;1.77;;;;;;;;;;5000334;28;20038;-75
2021/12/29 02:32:54;;;;;;;8.18;1.67;;;;;;;;;;4995192;28;20081;-74
2021/12/29 02:35:19;;;;;;;7.13;1.35;;;;;;;;;;4999131;28;20026;-75
2021/12/29 02:37:44;;;;;;;9.13;1.40;;;;;;;;;;5002798;28;20657;-73
2021/12/29 02:40:11;;;;;;;11.32;1.60;;;;;;;;;;4995336;28;20180;-75
2021/12/29 02:42:40;;;;;;;7.50;1.33;;;;;;;;;;5003712;28;20030;-76
2021/12/29 02:45:06;;;;;;;8.18;1.35;;;;;;;;;;5001770;28;20081;-75
2021/12/29 02:47:31;;;;;;;10.00;1.38;;;;;;;;;;4996887;28;20053;-74
2021/12/29 02:49:57;;;;;;;5.93;1.40;;;;;;;;;;4998961;28;20030;-74
2021/12/29 02:52:24;;;;;;;6.90;1.83;;;;;;;;;;5004413;28;20085;-73
2021/12/29 02:54:50;;;;;;;9.25;1.42;;;;;;;;;;4993000;28;20458;-75
2021/12/29 02:57:15;;;;;;;7.80;1.40;;;;;;;;;;4997623;28;20060;-74
2021/12/29 02:59:40;;;;;;;10.98;1.75;;;;;;;;;;4995090;28;20046;-75
2021/12/29 03:02:05;;;;;;;7.88;1.40;;;;;;;;;;4995121;28;20144;-74
2021/12/29 03:04:31;;;;;;;7.63;1.80;;;;;;;;;;5009191;28;20040;-76
2021/12/29 03:06:56;;;;;;;7.15;1.35;;;;;;;;;;5027990;28;20096;-75
2021/12/29 03:09:21;;;;;;;8.60;1.50;;;;;;;;;;5025811;28;20032;-76
2021/12/29 03:11:47;;;;;;;10.27;1.80;;;;;;;;;;5023564;28;20025;-77
2021/12/29 03:14:12;;;;;;;7.57;1.30;;;;;;;;;;5022616;28;20026;-75
2021/12/29 03:16:39;;;;;;;9.65;1.42;;;;;;;;;;5028380;28;20191;-76
2021/12/29 03:19:05;;;;;;;4.32;1.15;;;;;;;;;;5025622;28;20025;-75
2021/12/29 03:21:31;;;;;;;7.18;1.30;;;;;;;;;;5032424;28;20388;-75
2021/12/29 03:23:57;;;;;;;9.50;1.52;;;;;;;;;;5024567;28;20053;-75
2021/12/29 03:26:22;;;;;;;8.07;1.40;;;;;;;;;;5025320;28;20064;-75
2021/12/29 03:28:49;;;;;;;8.10;1.15;;;;;;;;;;5026413;28;20061;-74
2021/12/29 03:31:15;;;;;;;7.53;1.27;;;;;;;;;;5021600;28;20079;-74
2021/12/29 03:33:42;;;;;;;7.00;1.25;;;;;;;;;;5029684;28;20118;-74
2021/12/29 03:36:07;;;;;;;6.03;1.20;;;;;;;;;;5024021;28;20030;-74
2021/12/29 03:38:34;;;;;;;5.63;0.98;;;;;;;;;;5030491;28;20031;-74
2021/12/29 03:41:00;;;;;;;3.80;0.95;;;;;;;;;;5026419;28;20028;-75
2021/12/29 03:43:26;;;;;;;5.40;1.33;;;;;;;;;;5019051;28;20025;-73
2021/12/29 03:45:52;;;;;;;5.68;1.20;;;;;;;;;;5024146;28;20022;-73
2021/12/29 03:48:18;;;;;;;6.97;1.25;;;;;;;;;;5025314;28;20076;-75
2021/12/29 03:50:43;;;;;;;6.35;1.30;;;;;;;;;;5026305;28;20494;-74
2021/12/29 03:53:09;;;;;;;5.88;1.02;;;;;;;;;;5020475;28;20033;-74
2021/12/29 03:55:34;;;;;;;3.75;1.00;;;;;;;;;;5021080;28;20029;-75
2021/12/29 03:58:00;;;;;;;7.22;1.13;;;;;;;;;;5029469;28;20065;-75
2021/12/29 04:00:25;;;;;;;6.18;1.30;;;;;;;;;;5027018;28;20495;-76
2021/12/29 04:02:50;;;;;;;3.55;0.88;;;;;;;;;;5028650;28;20040;-76
2021/12/29 04:05:19;;;;;;;7.28;1.58;;;;;;;;;;5021273;28;20478;-75
2021/12/29 04:07:45;;;;;;;3.53;0.85;;;;;;;;;;5029645;28;20046;-76
2021/12/29 04:10:10;;;;;;;6.32;1.00;;;;;;;;;;5029868;28;20029;-76
2021/12/29 04:12:36;;;;;;;6.15;0.93;;;;;;;;;;5020336;28;20072;-77
2021/12/29 04:15:01;;;;;;;5.60;1.17;;;;;;;;;;5025341;28;20607;-75
2021/12/29 04:17:36;;;;;;;5.38;0.90;;;;;;;;;;5023709;28;20044;-76
2021/12/29 04:22:45;;;;;;;4.82;1.10;;;;;;;;;;5027954;28;20114;-76
2021/12/29 04:25:10;;;;;;;6.50;1.17;;;;;;;;;;5025145;28;20052;-77
2021/12/29 04:27:35;;;;;;;7.03;1.00;;;;;;;;;;5027885;28;20112;-76
2021/12/29 04:30:01;;;;;;;3.25;0.80;;;;;;;;;;5019514;28;20496;-74
2021/12/29 04:32:26;;;;;;;9.10;1.08;;;;;;;;;;5030708;28;20025;-77
2021/12/29 04:34:51;;;;;;;5.20;1.05;;;;;;;;;;5024369;28;20013;-77
2021/12/29 04:37:16;;;;;;;5.60;0.80;;;;;;;;;;5025690;28;20047;-77
2021/12/29 04:39:41;;;;;;;4.47;0.90;;;;;;;;;;5030211;28;20099;-77
2021/12/29 04:42:07;;;;;;;5.03;1.10;;;;;;;;;;5025883;28;20111;-76
2021/12/29 04:44:32;;;;;;;7.30;1.58;;;;;;;;;;5026304;28;20024;-77
2021/12/29 04:46:58;;;;;;;5.90;1.05;;;;;;;;;;5029080;28;20034;-76
2021/12/29 04:49:27;;;;;;;3.70;1.10;;;;;;;;;;5024681;28;20018;-74
2021/12/29 04:52:03;;;;;;;6.38;1.38;;;;;;;;;;5030857;28;20108;-75
2021/12/29 04:54:28;;;;;;;5.13;1.00;;;;;;;;;;5029010;28;20068;-77
2021/12/29 04:56:55;;;;;;;7.13;1.10;;;;;;;;;;5029460;28;20072;-76
2021/12/29 04:59:20;;;;;;;7.38;1.00;;;;;;;;;;5028860;28;20017;-77
2021/12/29 05:01:45;;;;;;;4.47;1.15;;;;;;;;;;5015912;28;20028;-75
2021/12/29 05:04:12;;;;;;;8.50;1.30;;;;;;;;;;5029381;28;20029;-76
2021/12/29 05:09:21;;;;;;;8.23;1.27;;;;;;;;;;5024905;28;20029;-77
2021/12/29 05:11:46;;;;;;;8.57;1.55;;;;;;;;;;5029859;28;20029;-76
2021/12/29 05:14:12;;;;;;;6.72;1.30;;;;;;;;;;5019677;28;20021;-76
2021/12/29 05:16:38;;;;;;;6.38;1.80;;;;;;;;;;5030118;28;20590;-77
2021/12/29 05:19:03;;;;;;;8.75;1.70;;;;;;;;;;5023520;28;20053;-78
2021/12/29 05:21:28;;;;;;;5.88;1.02;;;;;;;;;;5025892;28;20030;-77
2021/12/29 05:23:53;;;;;;;6.20;1.20;;;;;;;;;;5023200;28;20112;-78
2021/12/29 05:26:19;;;;;;;5.95;1.20;;;;;;;;;;5028232;28;20026;-78
2021/12/29 05:28:45;;;;;;;6.80;1.15;;;;;;;;;;5022336;28;20450;-78
2021/12/29 05:31:10;;;;;;;6.63;1.20;;;;;;;;;;5026206;28;20579;-78
2021/12/29 05:33:36;;;;;;;5.50;0.90;;;;;;;;;;5028634;28;20115;-78
2021/12/29 05:36:01;;;;;;;6.43;0.90;;;;;;;;;;5019651;28;20057;-76
2021/12/29 05:38:26;;;;;;;4.68;1.10;;;;;;;;;;5019325;28;20072;-78
2021/12/29 05:40:52;;;;;;;5.43;1.02;;;;;;;;;;5022980;28;20108;-78
2021/12/29 05:43:17;;;;;;;6.93;1.13;;;;;;;;;;5026470;28;20214;-76
2021/12/29 05:45:43;;;;;;;6.53;1.67;;;;;;;;;;5028282;28;20045;-75
2021/12/29 05:48:08;;;;;;;6.00;1.00;;;;;;;;;;5026658;28;20029;-77
2021/12/29 05:50:33;;;;;;;6.90;1.02;;;;;;;;;;5027500;28;20018;-80
2021/12/29 05:52:59;;;;;;;4.70;1.10;;;;;;;;;;5025878;28;20504;-77
2021/12/29 05:55:25;;;;;;;9.23;1.23;;;;;;;;;;5020800;28;20071;-77
2021/12/29 05:57:50;;;;;;;5.13;1.52;;;;;;;;;;5027307;28;20044;-77
2021/12/29 06:00:17;;;;;;;4.55;1.10;;;;;;;;;;5018790;28;20034;-78
2021/12/29 06:02:42;;;;;;;9.32;1.40;;;;;;;;;;5025032;28;20029;-77
2021/12/29 06:05:08;;;;;;;6.35;1.02;;;;;;;;;;5028937;28;20477;-78
2021/12/29 06:07:33;;;;;;;7.85;1.08;;;;;;;;;;5026798;28;20060;-78
2021/12/29 06:09:59;;;;;;;3.20;1.05;;;;;;;;;;5018199;28;20025;-78
2021/12/29 06:12:24;;;;;;;9.55;1.52;;;;;;;;;;5023450;28;20030;-77
2021/12/29 06:14:49;;;;;;;13.95;1.70;;;;;;;;;;5026944;28;20079;-76
2021/12/29 06:17:14;;;;;;;6.65;1.30;;;;;;;;;;5027437;28;20036;-75
2021/12/29 06:19:40;;;;;;;6.88;1.33;;;;;;;;;;5025574;28;20021;-76
2021/12/29 06:22:08;;;;;;;7.05;0.82;;;;;;;;;;5014350;28;20092;-77
2021/12/29 06:24:34;;;;;;;3.63;0.90;;;;;;;;;;5018263;28;20024;-75
2021/12/29 06:26:59;;;;;;;5.13;0.90;;;;;;;;;;5011986;28;20029;-76
2021/12/29 06:29:24;;;;;;;4.25;0.80;;;;;;;;;;5019164;28;20049;-76
2021/12/29 06:31:49;;;;;;;5.03;0.90;;;;;;;;;;5024166;28;20029;-75
2021/12/29 06:34:14;;;;;;;7.40;0.90;;;;;;;;;;5022947;28;20419;-75
2021/12/29 06:36:40;;;;;;;5.07;0.93;;;;;;;;;;5022635;28;20036;-73
2021/12/29 06:39:06;;;;;;;5.45;0.90;;;;;;;;;;5026603;28;20036;-75
2021/12/29 06:41:31;;;;;;;3.30;0.95;;;;;;;;;;5022555;28;20032;-76
2021/12/29 06:43:56;;;;;;;6.72;1.63;;;;;;;;;;5023592;28;20030;-75
2021/12/29 06:46:21;;;;;;;4.00;1.20;;;;;;;;;;5025028;28;20026;-78
2021/12/29 06:48:46;;;;;;;4.95;0.80;;;;;;;;;;5019587;28;20492;-76
2021/12/29 06:51:12;;;;;;;4.18;0.90;;;;;;;;;;5031761;28;20018;-75
2021/12/29 06:53:37;;;;;;;3.50;0.88;;;;;;;;;;5030017;28;20033;-76
2021/12/29 06:56:02;;;;;;;3.10;0.80;;;;;;;;;;5027113;28;20068;-74
2021/12/29 06:58:27;;;;;;;3.97;0.80;;;;;;;;;;5030477;28;20057;-74
2021/12/29 07:00:52;;;;;;;4.50;1.30;;;;;;;;;;5027099;28;20045;-77
2021/12/29 07:03:18;;;;;;;3.75;0.77;;;;;;;;;;5027470;28;20442;-76
2021/12/29 07:05:43;;;;;;;4.97;0.82;;;;;;;;;;5023817;28;20044;-75
2021/12/29 07:08:08;;;;;;;4.05;1.10;;;;;;;;;;5024707;28;20108;-75
2021/12/29 07:10:33;;;;;;;4.15;0.98;;;;;;;;;;5022970;28;20045;-75
2021/12/29 07:12:58;;;;;;;6.30;0.98;;;;;;;;;;5023780;28;20026;-76
2021/12/29 07:15:24;;;;;;;5.20;0.90;;;;;;;;;;5016418;28;20022;-75
2021/12/29 07:17:49;;;;;;;5.05;0.90;;;;;;;;;;5027948;28;20037;-77
2021/12/29 07:20:14;;;;;;;4.75;1.10;;;;;;;;;;5021820;28;20492;-76
2021/12/29 07:22:39;;;;;;;5.55;1.10;;;;;;;;;;5027940;28;20021;-77
2021/12/29 07:25:05;;;;;;;3.72;1.08;;;;;;;;;;5022256;28;20025;-77
2021/12/29 07:27:30;;;;;;;4.68;1.40;;;;;;;;;;5020489;28;20047;-74
2021/12/29 07:29:56;;;;;;;4.50;0.80;;;;;;;;;;5019264;28;20020;-75
2021/12/29 07:32:21;;;;;;;5.88;1.08;;;;;;;;;;5024136;28;20037;-74
2021/12/29 07:34:46;;;;;;;2.88;0.85;;;;;;;;;;5018852;28;20018;-76
2021/12/29 07:37:12;;;;;;;7.18;0.90;;;;;;;;;;5020118;28;20088;-76
2021/12/29 07:39:37;;;;;;;4.28;0.65;;;;;;;;;;5022573;28;20018;-75
2021/12/29 07:42:03;;;;;;;3.75;0.82;;;;;;;;;;5022598;28;20038;-76
2021/12/29 07:44:28;;;;;;;3.20;0.80;;;;;;;;;;5016269;28;20057;-74
2021/12/29 07:46:54;;;;;;;4.43;0.82;;;;;;;;;;5027048;28;20018;-76
2021/12/29 07:49:19;;;;;;;5.00;1.13;;;;;;;;;;5025740;28;20400;-76
2021/12/29 07:51:44;;;;;;;3.80;0.73;;;;;;;;;;5027372;28;20017;-76
2021/12/29 07:54:10;;;;;;;4.15;1.05;;;;;;;;;;5019253;28;20091;-75
2021/12/29 07:56:36;;;;;;;2.85;0.73;;;;;;;;;;5023606;28;20033;-76
2021/12/29 07:59:01;;;;;;;2.63;0.68;;;;;;;;;;5023111;28;20018;-77
2021/12/29 08:01:26;;;;;;;4.32;0.80;;;;;;;;;;5019878;28;20068;-75
2021/12/29 08:03:52;;;;;;;4.28;1.13;;;;;;;;;;5020037;28;20018;-75
2021/12/29 08:06:18;;;;;;;3.75;0.80;;;;;;;;;;5029609;28;20037;-76
2021/12/29 08:08:43;;;;;;;4.00;0.70;;;;;;;;;;5017817;28;20045;-75
2021/12/29 08:11:08;;;;;;;4.22;0.75;;;;;;;;;;5028043;28;20041;-75
2021/12/29 08:13:34;;;;;;;3.10;0.68;;;;;;;;;;5025005;28;20026;-76
2021/12/29 08:15:59;;;;;;;4.60;0.90;;;;;;;;;;5024628;28;20469;-76
2021/12/29 08:18:24;;;;;;;4.47;0.82;;;;;;;;;;5022787;28;20029;-76
2021/12/29 08:20:49;;;;;;;5.18;0.80;;;;;;;;;;5030081;28;20022;-76
2021/12/29 08:23:14;;;;;;;3.00;0.80;;;;;;;;;;5028875;28;20799;-77
2021/12/29 08:25:40;;;;;;;4.97;0.90;;;;;;;;;;5027227;28;20377;-75
2021/12/29 08:28:05;;;;;;;4.53;1.02;;;;;;;;;;5021786;28;20553;-76
2021/12/29 08:30:30;;;;;;;2.30;0.57;;;;;;;;;;5021752;28;20105;-75
2021/12/29 08:32:55;;;;;;;3.42;0.85;;;;;;;;;;5027754;28;20861;-76
2021/12/29 08:35:21;;;;;;;2.63;0.70;;;;;;;;;;5027481;28;20022;-76
2021/12/29 08:37:46;;;;;;;3.38;0.70;;;;;;;;;;5024859;28;20038;-76
2021/12/29 08:40:12;;;;;;;2.22;0.63;;;;;;;;;;5020210;28;20319;-76
2021/12/29 08:42:38;;;;;;;2.55;0.68;;;;;;;;;;5025411;28;20433;-65
2021/12/29 08:45:04;;;;;;;3.75;0.80;;;;;;;;;;5025151;28;20096;-63
2021/12/29 08:47:30;;;;;;;2.72;0.60;;;;;;;;;;5018633;28;20026;-63
2021/12/29 08:49:55;;;;;;;3.35;0.60;;;;;;;;;;5028503;28;20100;-63
2021/12/29 08:52:20;;;;;;;2.53;0.80;;;;;;;;;;5031729;28;20029;-64
2021/12/29 08:54:45;;;;;;;2.88;0.60;;;;;;;;;;5032838;28;20081;-63
2021/12/29 08:57:11;;;;;;;1.83;0.60;;;;;;;;;;5025629;28;20096;-64
2021/12/29 08:59:36;;;;;;;3.33;0.60;;;;;;;;;;5023567;28;20016;-65
2021/12/29 09:02:01;;;;;;;3.72;0.57;;;;;;;;;;5028318;28;20054;-64
2021/12/29 09:04:26;;;;;;;2.40;0.70;;;;;;;;;;5023561;28;20029;-64
2021/12/29 09:06:52;;;;;;;4.60;1.05;;;;;;;;;;5027275;28;20468;-63
2021/12/29 09:09:17;;;;;;;3.22;0.60;;;;;;;;;;5021970;28;20112;-64
2021/12/29 09:11:43;;;;;;;2.38;0.50;;;;;;;;;;5023996;28;20515;-64
2021/12/29 09:14:08;;;;;;;2.28;0.50;;;;;;;;;;5027571;28;20036;-63
2021/12/29 09:16:33;;;;;;;4.60;1.00;;;;;;;;;;5028112;28;20045;-63
2021/12/29 09:18:58;;;;;;;4.78;0.73;;;;;;;;;;5026239;28;20025;-63
2021/12/29 09:21:26;;;;;;;2.22;0.50;;;;;;;;;;5025301;28;20030;-63
2021/12/29 09:23:51;;;;;;;4.70;1.23;;;;;;;;;;5028280;28;20412;-64
2021/12/29 09:26:17;;;;;;;3.50;0.77;;;;;;;;;;5024951;28;20043;-63
2021/12/29 09:28:43;;;;;;;4.03;0.90;;;;;;;;;;5022464;28;20060;-63
2021/12/29 09:31:08;;;;;;;3.17;0.80;;;;;;;;;;5022907;28;20049;-63
2021/12/29 09:33:34;;;;;;;4.22;0.95;;;;;;;;;;5022466;28;20017;-64
2021/12/29 09:36:02;;;;;;;4.35;1.10;;;;;;;;;;5021679;28;20021;-64
2021/12/29 09:38:28;;;;;;;4.40;1.00;;;;;;;;;;5017690;28;20099;-64
2021/12/29 09:40:53;;;;;;;5.32;1.05;;;;;;;;;;5023802;28;20764;-64
2021/12/29 09:43:19;;;;;;;5.95;1.20;;;;;;;;;;5026614;28;20021;-65
2021/12/29 09:45:45;;;;;;;4.35;1.10;;;;;;;;;;5020191;28;20037;-64
2021/12/29 09:48:11;;;;;;;4.40;0.90;;;;;;;;;;5027891;28;20017;-63
2021/12/29 09:50:36;;;;;;;4.03;0.68;;;;;;;;;;5019775;28;20052;-64
2021/12/29 09:53:02;;;;;;;5.05;1.10;;;;;;;;;;5022609;28;20013;-64
2021/12/29 09:55:27;;;;;;;3.08;0.70;;;;;;;;;;5024649;28;20394;-64
2021/12/29 09:57:56;;;;;;;6.40;1.00;;;;;;;;;;5025656;28;20056;-64
2021/12/29 10:00:21;;;;;;;4.88;1.25;;;;;;;;;;5026287;28;20025;-64
2021/12/29 10:02:47;;;;;;;6.88;1.27;;;;;;;;;;5020959;28;20471;-64
2021/12/29 10:05:12;;;;;;;4.97;1.10;;;;;;;;;;5017637;28;20017;-64
2021/12/29 10:07:37;;;;;;;3.97;1.30;;;;;;;;;;5027011;28;20054;-67
2021/12/29 10:10:03;;;;;;;4.95;1.00;;;;;;;;;;5021785;28;20022;-65
2021/12/29 10:12:28;;;;;;;5.80;1.20;;;;;;;;;;5020055;28;20029;-65
2021/12/29 10:14:55;;;;;;;7.00;1.10;;;;;;;;;;5018940;28;20041;-65
2021/12/29 10:17:24;;;;;;;4.60;0.93;;;;;;;;;;5027686;28;20026;-65
2021/12/29 10:19:59;;;;;;;5.97;1.40;;;;;;;;;;5027471;28;20028;-64
2021/12/29 10:22:24;;;;;;;6.35;1.20;;;;;;;;;;5035547;28;20033;-65
2021/12/29 10:25:01;;;;;;;6.90;1.70;;;;;;;;;;5038520;28;20029;-65
2021/12/29 10:27:29;;;;;;;9.10;1.80;;;;;;;;;;5034642;28;20013;-65
2021/12/29 10:29:54;;;;;;;8.60;1.50;;;;;;;;;;5028535;28;20013;-65
2021/12/29 10:32:23;;;;;;;6.47;1.48;;;;;;;;;;5029973;28;20448;-64
2021/12/29 10:34:52;;;;;;;4.78;0.90;;;;;;;;;;5029621;28;20385;-65
2021/12/29 10:37:17;;;;;;;4.53;0.98;;;;;;;;;;5032489;28;20072;-65
2021/12/29 10:39:44;;;;;;;5.68;1.50;;;;;;;;;;5034289;28;20470;-65
2021/12/29 10:42:14;;;;;;;4.75;1.50;;;;;;;;;;5031665;28;20434;-64
2021/12/29 10:44:40;;;;;;;5.10;1.45;;;;;;;;;;5033838;28;20568;-65
2021/12/29 10:47:32;;;;;;;4.35;0.98;;;;;;;;;;5030641;28;20040;-65
2021/12/29 10:50:14;;;;;;;7.15;1.23;;;;;;;;;;5031321;28;20041;-65
2021/12/29 10:52:46;;;;;;;5.78;1.20;;;;;;;;;;5032371;28;20167;-64
2021/12/29 10:55:32;;;;;;;6.03;1.42;;;;;;;;;;5023440;28;20033;-65
2021/12/29 10:58:23;;;;;;;6.57;1.23;;;;;;;;;;5034002;28;20041;-64
2021/12/29 11:00:55;;;;;;;5.57;1.15;;;;;;;;;;5022203;28;20047;-64
2021/12/29 11:03:21;;;;;;;6.45;0.95;;;;;;;;;;5029170;28;20035;-65
2021/12/29 11:05:48;;;;;;;6.88;1.10;;;;;;;;;;5034576;28;20116;-65
2021/12/29 11:08:14;;;;;;;6.53;1.40;;;;;;;;;;5033294;28;20053;-64
2021/12/29 11:10:39;;;;;;;5.05;1.30;;;;;;;;;;5030572;28;20032;-64
2021/12/29 11:13:04;;;;;;;5.90;1.17;;;;;;;;;;5024502;28;20424;-64
2021/12/29 11:15:31;;;;;;;3.60;1.08;;;;;;;;;;5034085;28;20037;-65
2021/12/29 11:18:04;;;;;;;4.55;1.30;;;;;;;;;;5032536;28;20037;-65
2021/12/29 11:20:31;;;;;;;7.68;1.45;;;;;;;;;;5030198;28;20076;-65
2021/12/29 11:23:03;;;;;;;5.18;1.20;;;;;;;;;;5034308;28;20025;-65
2021/12/29 11:25:29;;;;;;;5.57;1.45;;;;;;;;;;5029465;28;20104;-65
2021/12/29 11:27:55;;;;;;;9.10;1.45;;;;;;;;;;5042743;28;20024;-66
2021/12/29 11:30:20;;;;;;;8.43;1.73;;;;;;;;;;5041847;28;20036;-65
2021/12/29 11:32:46;;;;;;;7.38;1.45;;;;;;;;;;5034505;28;20029;-67
2021/12/29 11:35:12;;;;;;;8.80;1.63;;;;;;;;;;5040204;28;20025;-65
2021/12/29 11:37:57;;;;;;;9.18;1.90;;;;;;;;;;5035690;28;20043;-65
2021/12/29 11:40:25;;;;;;;8.68;2.00;;;;;;;;;;5039340;28;20049;-64
2021/12/29 11:42:51;;;;;;;8.00;1.40;;;;;;;;;;5038993;28;20124;-65
2021/12/29 11:45:17;;;;;;;8.93;1.70;;;;;;;;;;5036954;28;20100;-65
2021/12/29 11:47:42;;;;;;;9.45;1.73;;;;;;;;;;5038576;28;20033;-64
2021/12/29 11:50:09;;;;;;;7.18;1.90;;;;;;;;;;5035615;28;20025;-65
2021/12/29 11:52:37;;;;;;;8.07;1.95;;;;;;;;;;5038247;28;20424;-65
2021/12/29 11:55:05;;;;;;;11.32;2.28;;;;;;;;;;5037584;28;20241;-65
2021/12/29 11:57:31;;;;;;;5.57;1.33;;;;;;;;;;5037348;28;20037;-65
2021/12/29 12:00:09;;;;;;;7.95;1.50;;;;;;;;;;5037984;28;20422;-65
2021/12/29 12:02:34;;;;;;;9.27;1.90;;;;;;;;;;5037632;28;20451;-67
2021/12/29 12:04:59;;;;;;;9.90;1.67;;;;;;;;;;5035806;28;20029;-66
2021/12/29 12:07:24;;;;;;;8.98;1.27;;;;;;;;;;5040245;28;20052;-65
2021/12/29 12:09:50;;;;;;;5.72;1.38;;;;;;;;;;5040372;28;20381;-65
2021/12/29 12:12:16;;;;;;;10.25;1.58;;;;;;;;;;5036694;28;20100;-65
2021/12/29 12:14:46;;;;;;;10.13;1.63;;;;;;;;;;5036113;28;20393;-65
2021/12/29 12:17:13;;;;;;;9.75;1.90;;;;;;;;;;5038928;28;20044;-65
2021/12/29 12:19:38;;;;;;;7.40;1.83;;;;;;;;;;5036228;28;20444;-66
2021/12/29 12:22:15;;;;;;;8.95;1.95;;;;;;;;;;5039665;28;20025;-65
2021/12/29 12:24:55;;;;;;;12.18;1.90;;;;;;;;;;5037953;28;20033;-65
2021/12/29 12:27:20;;;;;;;;;;;;;;;;;;5033703;28;20370;-65
2021/12/29 12:29:46;;;;;;;11.82;1.95;;;;;;;;;;5037568;28;20355;-66
2021/12/29 12:32:12;;;;;;;10.02;2.10;;;;;;;;;;5039744;28;20067;-66
2021/12/29 12:34:57;;;;;;;9.15;2.13;;;;;;;;;;5033112;28;20153;-65
2021/12/29 12:37:28;;;;;;;9.50;2.10;;;;;;;;;;5028952;28;20029;-66
2021/12/29 12:40:14;;;;;;;9.20;1.80;;;;;;;;;;5029773;28;20154;-67
2021/12/29 12:42:40;;;;;;;9.35;1.60;;;;;;;;;;5021413;28;20110;-65
2021/12/29 12:45:16;;;;;;;7.47;1.40;;;;;;;;;;5017212;28;20063;-65
2021/12/29 12:47:41;;;;;;;8.93;2.03;;;;;;;;;;5022755;28;20120;-66
2021/12/29 12:50:06;;;;;;;11.85;2.05;;;;;;;;;;5026374;28;20100;-64
2021/12/29 12:52:42;;;;;;;5.25;1.35;;;;;;;;;;5027658;28;20032;-65
2021/12/29 12:55:09;;;;;;;10.88;2.38;;;;;;;;;;5029360;28;20108;-65
2021/12/29 12:57:35;;;;;;;11.15;1.65;;;;;;;;;;5023614;28;20040;-65
2021/12/29 13:00:07;;;;;;;7.78;1.63;;;;;;;;;;5029723;28;20025;-66
2021/12/29 13:02:37;;;;;;;7.88;1.60;;;;;;;;;;5029862;28;20116;-66
2021/12/29 13:05:02;;;;;;;;;;;;;;;;;;5030064;28;20025;-65
2021/12/29 13:07:27;;;;;;;5.20;1.50;;;;;;;;;;5028524;28;19928;-66
2021/12/29 13:09:53;;;;;;;8.23;1.48;;;;;;;;;;5029861;28;20397;-66
2021/12/29 13:12:29;;;;;;;9.20;1.65;;;;;;;;;;5029678;28;20021;-66
2021/12/29 13:15:08;;;;;;;5.78;1.58;;;;;;;;;;5029476;28;20030;-66
2021/12/29 13:17:33;;;;;;;6.03;1.20;;;;;;;;;;5021454;28;20409;-66
2021/12/29 13:19:58;;;;;;;6.50;1.40;;;;;;;;;;5030023;28;20028;-65
2021/12/29 13:22:25;;;;;;;7.82;1.30;;;;;;;;;;5030537;28;20033;-65
2021/12/29 13:24:50;;;;;;;5.72;1.67;;;;;;;;;;5025165;28;20026;-66
2021/12/29 13:27:20;;;;;;;5.93;1.35;;;;;;;;;;5028751;28;20037;-67
2021/12/29 13:29:55;;;;;;;6.45;1.38;;;;;;;;;;5027723;28;20389;-65
2021/12/29 13:32:20;;;;;;;6.22;1.25;;;;;;;;;;5024667;28;20087;-65
2021/12/29 13:34:45;;;;;;;4.80;1.10;;;;;;;;;;5029445;28;20391;-65
2021/12/29 13:37:10;;;;;;;5.70;1.17;;;;;;;;;;5029131;28;20037;-66
2021/12/29 13:39:35;;;;;;;5.70;1.20;;;;;;;;;;5026739;28;20064;-65
2021/12/29 13:42:00;;;;;;;6.28;1.50;;;;;;;;;;5028760;28;20018;-66
2021/12/29 13:44:28;;;;;;;5.88;1.15;;;;;;;;;;5029072;28;20021;-66
2021/12/29 13:46:53;;;;;;;6.90;1.20;;;;;;;;;;5028259;28;20176;-66
2021/12/29 13:49:19;;;;;;;4.78;0.90;;;;;;;;;;5027712;28;20485;-66
2021/12/29 13:51:47;;;;;;;2.70;0.80;;;;;;;;;;5022163;28;20025;-66
2021/12/29 13:54:13;;;;;;;3.45;0.95;;;;;;;;;;5034978;28;20449;-66
2021/12/29 13:56:43;;;;;;;2.70;0.88;;;;;;;;;;5028241;28;20036;-66
2021/12/29 13:59:15;;;;;;;4.55;1.17;;;;;;;;;;5027692;28;20042;-66
2021/12/29 14:01:41;;;;;;;5.57;1.10;;;;;;;;;;5022590;28;20025;-65
2021/12/29 14:04:09;;;;;;;6.70;1.30;;;;;;;;;;5023066;28;20386;-67
2021/12/29 14:06:34;;;;;;;3.00;0.90;;;;;;;;;;5028598;28;20045;-65
2021/12/29 14:09:00;;;;;;;4.07;0.80;;;;;;;;;;5024148;28;20021;-65
2021/12/29 14:11:26;;;;;;;4.00;0.95;;;;;;;;;;5025534;28;20075;-65
2021/12/29 14:14:02;;;;;;;3.50;0.90;;;;;;;;;;5014676;28;20052;-66
2021/12/29 14:16:27;;;;;;;2.80;0.70;;;;;;;;;;5027519;28;20021;-65
2021/12/29 14:18:55;;;;;;;2.85;0.80;;;;;;;;;;5027773;28;20031;-66
2021/12/29 14:21:28;;;;;;;2.90;0.80;;;;;;;;;;5017658;28;20479;-65
2021/12/29 14:23:58;;;;;;;1.88;0.88;;;;;;;;;;5028336;28;20029;-65
2021/12/29 14:26:24;;;;;;;4.32;1.00;;;;;;;;;;5025715;28;20025;-66
2021/12/29 14:28:56;;;;;;;4.65;1.00;;;;;;;;;;5021591;28;20033;-66
2021/12/29 14:31:23;;;;;;;2.97;1.08;;;;;;;;;;5023131;28;20014;-65
2021/12/29 14:33:49;;;;;;;3.97;0.90;;;;;;;;;;5022087;28;20029;-65
2021/12/29 14:36:25;;;;;;;2.55;0.80;;;;;;;;;;5033570;28;20414;-65
2021/12/29 14:38:58;;;;;;;2.50;0.80;;;;;;;;;;5033271;28;20425;-65
2021/12/29 14:41:23;;;;;;;1.27;0.60;;;;;;;;;;5038701;28;20025;-66
2021/12/29 14:44:00;;;;;;;2.08;0.75;;;;;;;;;;5030251;28;20429;-65
2021/12/29 14:46:25;;;;;;;1.70;0.63;;;;;;;;;;5037563;28;20030;-65
2021/12/29 14:48:51;;;;;;;4.15;0.75;;;;;;;;;;5036365;28;20392;-65